sensor_id;sensor_type;location;lat;lon;timestamp;P1;durP1;ratioP1;P2;durP2;ratioP2
75413;SDS011;64758;52.122;5.404;2023-04-25T00:00:08;6.90;;;1.53;;
75413;SDS011;64758;52.122;5.404;2023-04-25T00:02:35;10.95;;;1.40;;
75413;SDS011;64758;52.122;5.404;2023-04-25T00:05:02;8.43;;;1.40;;
75413;SDS011;64758;52.122;5.404;2023-04-25T00:07:29;5.95;;;1.30;;
75413;SDS011;64758;52.122;5.404;2023-04-25T00:09:57;7.60;;;1.70;;
75413;SDS011;64758;52.122;5.404;2023-04-25T00:12:24;8.03;;;1.50;;
75413;SDS011;64758;52.122;5.404;2023-04-25T00:14:50;10.23;;;1.65;;
75413;SDS011;64758;52.122;5.404;2023-04-25T00:17:17;6.90;;;1.58;;
75413;SDS011;64758;52.122;5.404;2023-04-25T00:19:45;10.35;;;2.25;;
75413;SDS011;64758;52.122;5.404;2023-04-25T00:22:12;7.60;;;1.23;;
75413;SDS011;64758;52.122;5.404;2023-04-25T00:24:39;9.80;;;1.77;;
75413;SDS011;64758;52.122;5.404;2023-04-25T00:27:05;8.55;;;1.35;;
75413;SDS011;64758;52.122;5.404;2023-04-25T00:29:32;7.50;;;1.65;;
75413;SDS011;64758;52.122;5.404;2023-04-25T00:31:59;14.20;;;1.88;;
75413;SDS011;64758;52.122;5.404;2023-04-25T00:34:26;6.70;;;1.45;;
75413;SDS011;64758;52.122;5.404;2023-04-25T00:36:53;11.77;;;1.80;;
75413;SDS011;64758;52.122;5.404;2023-04-25T00:39:19;6.05;;;1.15;;
75413;SDS011;64758;52.122;5.404;2023-04-25T00:41:46;9.13;;;1.50;;
75413;SDS011;64758;52.122;5.404;2023-04-25T00:44:13;7.40;;;1.52;;
75413;SDS011;64758;52.122;5.404;2023-04-25T00:46:43;6.05;;;1.67;;
75413;SDS011;64758;52.122;5.404;2023-04-25T00:49:10;5.70;;;1.73;;
75413;SDS011;64758;52.122;5.404;2023-04-25T00:51:41;11.00;;;1.77;;
75413;SDS011;64758;52.122;5.404;2023-04-25T00:54:13;8.68;;;1.30;;
75413;SDS011;64758;52.122;5.404;2023-04-25T00:56:40;7.70;;;1.80;;
75413;SDS011;64758;52.122;5.404;2023-04-25T00:59:08;10.60;;;1.77;;
75413;SDS011;64758;52.122;5.404;2023-04-25T01:01:36;9.27;;;1.87;;
75413;SDS011;64758;52.122;5.404;2023-04-25T01:04:03;8.75;;;1.40;;
75413;SDS011;64758;52.122;5.404;2023-04-25T01:06:30;8.77;;;1.33;;
75413;SDS011;64758;52.122;5.404;2023-04-25T01:08:58;7.38;;;1.52;;
75413;SDS011;64758;52.122;5.404;2023-04-25T01:11:25;9.40;;;1.90;;
75413;SDS011;64758;52.122;5.404;2023-04-25T01:13:52;8.67;;;1.83;;
75413;SDS011;64758;52.122;5.404;2023-04-25T01:16:18;4.32;;;1.02;;
75413;SDS011;64758;52.122;5.404;2023-04-25T01:18:45;12.73;;;2.08;;
75413;SDS011;64758;52.122;5.404;2023-04-25T01:21:13;6.82;;;1.10;;
75413;SDS011;64758;52.122;5.404;2023-04-25T01:23:40;11.05;;;1.83;;
75413;SDS011;64758;52.122;5.404;2023-04-25T01:26:08;6.47;;;1.90;;
75413;SDS011;64758;52.122;5.404;2023-04-25T01:28:36;3.72;;;1.33;;
75413;SDS011;64758;52.122;5.404;2023-04-25T01:31:03;7.90;;;1.17;;
75413;SDS011;64758;52.122;5.404;2023-04-25T01:33:31;7.15;;;1.73;;
75413;SDS011;64758;52.122;5.404;2023-04-25T01:35:58;7.45;;;1.98;;
75413;SDS011;64758;52.122;5.404;2023-04-25T01:38:25;9.07;;;1.20;;
75413;SDS011;64758;52.122;5.404;2023-04-25T01:40:52;11.60;;;2.08;;
75413;SDS011;64758;52.122;5.404;2023-04-25T01:43:19;6.68;;;1.40;;
75413;SDS011;64758;52.122;5.404;2023-04-25T01:45:46;11.18;;;1.50;;
75413;SDS011;64758;52.122;5.404;2023-04-25T01:48:15;6.25;;;1.13;;
75413;SDS011;64758;52.122;5.404;2023-04-25T01:50:42;7.80;;;1.13;;
75413;SDS011;64758;52.122;5.404;2023-04-25T01:53:10;7.15;;;1.42;;
75413;SDS011;64758;52.122;5.404;2023-04-25T01:55:39;7.95;;;1.40;;
75413;SDS011;64758;52.122;5.404;2023-04-25T01:58:05;10.38;;;1.42;;
75413;SDS011;64758;52.122;5.404;2023-04-25T02:00:39;11.45;;;1.80;;
75413;SDS011;64758;52.122;5.404;2023-04-25T02:03:07;8.17;;;1.23;;
75413;SDS011;64758;52.122;5.404;2023-04-25T02:05:38;5.72;;;1.98;;
75413;SDS011;64758;52.122;5.404;2023-04-25T02:08:06;3.72;;;1.10;;
75413;SDS011;64758;52.122;5.404;2023-04-25T02:10:33;6.65;;;1.02;;
75413;SDS011;64758;52.122;5.404;2023-04-25T02:13:00;8.60;;;1.30;;
75413;SDS011;64758;52.122;5.404;2023-04-25T02:15:27;5.27;;;1.17;;
75413;SDS011;64758;52.122;5.404;2023-04-25T02:17:53;10.05;;;1.20;;
75413;SDS011;64758;52.122;5.404;2023-04-25T02:20:21;7.43;;;1.02;;
75413;SDS011;64758;52.122;5.404;2023-04-25T02:22:49;9.25;;;1.20;;
75413;SDS011;64758;52.122;5.404;2023-04-25T02:25:16;8.77;;;2.15;;
75413;SDS011;64758;52.122;5.404;2023-04-25T02:27:43;9.33;;;1.63;;
75413;SDS011;64758;52.122;5.404;2023-04-25T02:30:09;10.73;;;1.40;;
75413;SDS011;64758;52.122;5.404;2023-04-25T02:32:36;5.97;;;1.25;;
75413;SDS011;64758;52.122;5.404;2023-04-25T02:35:03;8.48;;;1.27;;
75413;SDS011;64758;52.122;5.404;2023-04-25T02:37:31;7.22;;;0.90;;
75413;SDS011;64758;52.122;5.404;2023-04-25T02:39:57;5.13;;;1.23;;
75413;SDS011;64758;52.122;5.404;2023-04-25T02:42:24;8.20;;;1.55;;
75413;SDS011;64758;52.122;5.404;2023-04-25T02:44:51;5.85;;;1.27;;
75413;SDS011;64758;52.122;5.404;2023-04-25T02:47:17;4.15;;;1.27;;
75413;SDS011;64758;52.122;5.404;2023-04-25T02:49:44;5.88;;;1.38;;
75413;SDS011;64758;52.122;5.404;2023-04-25T02:52:12;6.60;;;1.47;;
75413;SDS011;64758;52.122;5.404;2023-04-25T02:54:39;6.10;;;1.17;;
75413;SDS011;64758;52.122;5.404;2023-04-25T02:57:07;10.75;;;1.40;;
75413;SDS011;64758;52.122;5.404;2023-04-25T02:59:33;5.88;;;1.42;;
75413;SDS011;64758;52.122;5.404;2023-04-25T03:02:00;6.85;;;1.40;;
75413;SDS011;64758;52.122;5.404;2023-04-25T03:04:27;12.30;;;1.40;;
75413;SDS011;64758;52.122;5.404;2023-04-25T03:06:54;5.63;;;1.20;;
75413;SDS011;64758;52.122;5.404;2023-04-25T03:09:21;6.38;;;1.38;;
75413;SDS011;64758;52.122;5.404;2023-04-25T03:11:47;5.15;;;1.20;;
75413;SDS011;64758;52.122;5.404;2023-04-25T03:14:14;6.22;;;1.13;;
75413;SDS011;64758;52.122;5.404;2023-04-25T03:16:41;9.63;;;1.70;;
75413;SDS011;64758;52.122;5.404;2023-04-25T03:19:07;6.45;;;1.40;;
75413;SDS011;64758;52.122;5.404;2023-04-25T03:21:34;13.68;;;1.65;;
75413;SDS011;64758;52.122;5.404;2023-04-25T03:24:02;7.57;;;1.30;;
75413;SDS011;64758;52.122;5.404;2023-04-25T03:26:30;3.75;;;1.40;;
75413;SDS011;64758;52.122;5.404;2023-04-25T03:28:57;7.70;;;1.67;;
75413;SDS011;64758;52.122;5.404;2023-04-25T03:31:23;7.35;;;1.38;;
75413;SDS011;64758;52.122;5.404;2023-04-25T03:33:50;6.38;;;1.70;;
75413;SDS011;64758;52.122;5.404;2023-04-25T03:36:17;5.07;;;1.55;;
75413;SDS011;64758;52.122;5.404;2023-04-25T03:38:43;9.32;;;1.27;;
75413;SDS011;64758;52.122;5.404;2023-04-25T03:41:10;9.33;;;1.40;;
75413;SDS011;64758;52.122;5.404;2023-04-25T03:43:36;5.07;;;1.23;;
75413;SDS011;64758;52.122;5.404;2023-04-25T03:46:03;7.82;;;1.38;;
75413;SDS011;64758;52.122;5.404;2023-04-25T03:48:30;7.80;;;1.45;;
75413;SDS011;64758;52.122;5.404;2023-04-25T03:50:56;5.80;;;1.27;;
75413;SDS011;64758;52.122;5.404;2023-04-25T03:53:23;6.37;;;1.20;;
75413;SDS011;64758;52.122;5.404;2023-04-25T03:55:49;11.35;;;1.20;;
75413;SDS011;64758;52.122;5.404;2023-04-25T03:58:16;10.05;;;1.42;;
75413;SDS011;64758;52.122;5.404;2023-04-25T04:00:43;8.00;;;1.20;;
75413;SDS011;64758;52.122;5.404;2023-04-25T04:03:09;8.25;;;1.10;;
75413;SDS011;64758;52.122;5.404;2023-04-25T04:05:37;4.53;;;0.83;;
75413;SDS011;64758;52.122;5.404;2023-04-25T04:08:06;10.88;;;0.95;;
75413;SDS011;64758;52.122;5.404;2023-04-25T04:10:33;11.07;;;1.10;;
75413;SDS011;64758;52.122;5.404;2023-04-25T04:12:59;5.80;;;1.10;;
75413;SDS011;64758;52.122;5.404;2023-04-25T04:15:26;11.18;;;0.95;;
75413;SDS011;64758;52.122;5.404;2023-04-25T04:17:52;6.37;;;1.03;;
75413;SDS011;64758;52.122;5.404;2023-04-25T04:20:20;3.92;;;0.80;;
75413;SDS011;64758;52.122;5.404;2023-04-25T04:22:46;5.43;;;0.88;;
75413;SDS011;64758;52.122;5.404;2023-04-25T04:25:13;6.25;;;1.20;;
75413;SDS011;64758;52.122;5.404;2023-04-25T04:27:39;4.28;;;1.13;;
75413;SDS011;64758;52.122;5.404;2023-04-25T04:30:06;4.77;;;0.90;;
75413;SDS011;64758;52.122;5.404;2023-04-25T04:32:34;7.70;;;1.00;;
75413;SDS011;64758;52.122;5.404;2023-04-25T04:35:04;5.00;;;1.00;;
75413;SDS011;64758;52.122;5.404;2023-04-25T04:37:32;5.85;;;1.13;;
75413;SDS011;64758;52.122;5.404;2023-04-25T04:39:59;10.95;;;1.05;;
75413;SDS011;64758;52.122;5.404;2023-04-25T04:42:31;5.93;;;0.70;;
75413;SDS011;64758;52.122;5.404;2023-04-25T04:44:58;4.35;;;0.52;;
75413;SDS011;64758;52.122;5.404;2023-04-25T04:47:24;8.35;;;0.88;;
75413;SDS011;64758;52.122;5.404;2023-04-25T04:49:52;4.68;;;0.57;;
75413;SDS011;64758;52.122;5.404;2023-04-25T04:52:18;8.63;;;1.08;;
75413;SDS011;64758;52.122;5.404;2023-04-25T04:54:45;5.40;;;1.00;;
75413;SDS011;64758;52.122;5.404;2023-04-25T04:57:11;4.53;;;0.60;;
75413;SDS011;64758;52.122;5.404;2023-04-25T04:59:38;5.95;;;0.70;;
75413;SDS011;64758;52.122;5.404;2023-04-25T05:02:04;5.10;;;0.80;;
75413;SDS011;64758;52.122;5.404;2023-04-25T05:04:31;5.70;;;0.55;;
75413;SDS011;64758;52.122;5.404;2023-04-25T05:06:57;6.17;;;0.73;;
75413;SDS011;64758;52.122;5.404;2023-04-25T05:09:24;4.60;;;0.52;;
75413;SDS011;64758;52.122;5.404;2023-04-25T05:11:52;4.32;;;0.60;;
75413;SDS011;64758;52.122;5.404;2023-04-25T05:14:18;6.05;;;0.88;;
75413;SDS011;64758;52.122;5.404;2023-04-25T05:16:44;7.38;;;1.02;;
75413;SDS011;64758;52.122;5.404;2023-04-25T05:19:11;3.80;;;0.70;;
75413;SDS011;64758;52.122;5.404;2023-04-25T05:21:38;3.63;;;0.55;;
75413;SDS011;64758;52.122;5.404;2023-04-25T05:24:04;6.07;;;1.38;;
75413;SDS011;64758;52.122;5.404;2023-04-25T05:26:31;9.30;;;1.05;;
75413;SDS011;64758;52.122;5.404;2023-04-25T05:28:57;5.30;;;0.70;;
75413;SDS011;64758;52.122;5.404;2023-04-25T05:31:24;8.77;;;0.90;;
75413;SDS011;64758;52.122;5.404;2023-04-25T05:33:50;7.13;;;0.63;;
75413;SDS011;64758;52.122;5.404;2023-04-25T05:36:18;3.85;;;0.60;;
75413;SDS011;64758;52.122;5.404;2023-04-25T05:38:45;3.47;;;0.60;;
75413;SDS011;64758;52.122;5.404;2023-04-25T05:41:12;7.65;;;0.60;;
75413;SDS011;64758;52.122;5.404;2023-04-25T05:43:38;3.53;;;0.70;;
75413;SDS011;64758;52.122;5.404;2023-04-25T05:46:05;9.32;;;1.10;;
75413;SDS011;64758;52.122;5.404;2023-04-25T05:48:32;2.30;;;0.60;;
75413;SDS011;64758;52.122;5.404;2023-04-25T05:50:58;3.97;;;0.43;;
75413;SDS011;64758;52.122;5.404;2023-04-25T05:53:24;7.82;;;0.80;;
75413;SDS011;64758;52.122;5.404;2023-04-25T05:55:51;3.63;;;0.70;;
75413;SDS011;64758;52.122;5.404;2023-04-25T05:58:17;5.43;;;0.57;;
75413;SDS011;64758;52.122;5.404;2023-04-25T06:00:44;4.07;;;0.50;;
75413;SDS011;64758;52.122;5.404;2023-04-25T06:03:10;4.72;;;0.63;;
75413;SDS011;64758;52.122;5.404;2023-04-25T06:05:37;4.63;;;0.70;;
75413;SDS011;64758;52.122;5.404;2023-04-25T06:08:04;6.83;;;0.97;;
75413;SDS011;64758;52.122;5.404;2023-04-25T06:10:31;3.75;;;0.88;;
75413;SDS011;64758;52.122;5.404;2023-04-25T06:12:57;6.43;;;1.00;;
75413;SDS011;64758;52.122;5.404;2023-04-25T06:15:23;4.03;;;0.50;;
75413;SDS011;64758;52.122;5.404;2023-04-25T06:17:54;4.75;;;0.70;;
75413;SDS011;64758;52.122;5.404;2023-04-25T06:20:21;2.33;;;0.60;;
75413;SDS011;64758;52.122;5.404;2023-04-25T06:22:50;4.03;;;0.93;;
75413;SDS011;64758;52.122;5.404;2023-04-25T06:25:20;4.18;;;0.73;;
75413;SDS011;64758;52.122;5.404;2023-04-25T06:27:47;4.55;;;0.55;;
75413;SDS011;64758;52.122;5.404;2023-04-25T06:30:13;3.45;;;0.40;;
75413;SDS011;64758;52.122;5.404;2023-04-25T06:32:41;4.90;;;0.50;;
75413;SDS011;64758;52.122;5.404;2023-04-25T06:35:08;4.13;;;0.57;;
75413;SDS011;64758;52.122;5.404;2023-04-25T06:37:34;3.60;;;0.63;;
75413;SDS011;64758;52.122;5.404;2023-04-25T06:40:01;3.75;;;0.68;;
75413;SDS011;64758;52.122;5.404;2023-04-25T06:42:28;4.82;;;0.50;;
75413;SDS011;64758;52.122;5.404;2023-04-25T06:44:55;5.40;;;0.87;;
75413;SDS011;64758;52.122;5.404;2023-04-25T06:47:22;4.75;;;0.68;;
75413;SDS011;64758;52.122;5.404;2023-04-25T06:49:48;7.07;;;0.95;;
75413;SDS011;64758;52.122;5.404;2023-04-25T06:52:15;4.60;;;0.45;;
75413;SDS011;64758;52.122;5.404;2023-04-25T06:54:44;5.50;;;0.88;;
75413;SDS011;64758;52.122;5.404;2023-04-25T06:57:11;5.77;;;0.60;;
75413;SDS011;64758;52.122;5.404;2023-04-25T06:59:37;4.82;;;0.60;;
75413;SDS011;64758;52.122;5.404;2023-04-25T07:02:04;3.38;;;0.45;;
75413;SDS011;64758;52.122;5.404;2023-04-25T07:04:32;3.15;;;0.47;;
75413;SDS011;64758;52.122;5.404;2023-04-25T07:06:58;4.95;;;0.50;;
75413;SDS011;64758;52.122;5.404;2023-04-25T07:09:27;6.53;;;0.97;;
75413;SDS011;64758;52.122;5.404;2023-04-25T07:11:53;6.22;;;0.60;;
75413;SDS011;64758;52.122;5.404;2023-04-25T07:14:20;3.22;;;0.60;;
75413;SDS011;64758;52.122;5.404;2023-04-25T07:16:46;2.47;;;0.60;;
75413;SDS011;64758;52.122;5.404;2023-04-25T07:19:13;4.20;;;0.60;;
75413;SDS011;64758;52.122;5.404;2023-04-25T07:21:39;6.07;;;0.47;;
75413;SDS011;64758;52.122;5.404;2023-04-25T07:24:06;5.18;;;0.50;;
75413;SDS011;64758;52.122;5.404;2023-04-25T07:26:32;5.90;;;0.50;;
75413;SDS011;64758;52.122;5.404;2023-04-25T07:28:59;7.45;;;0.65;;
75413;SDS011;64758;52.122;5.404;2023-04-25T07:31:26;8.68;;;0.68;;
75413;SDS011;64758;52.122;5.404;2023-04-25T07:33:53;4.97;;;0.63;;
75413;SDS011;64758;52.122;5.404;2023-04-25T07:36:19;3.88;;;0.70;;
75413;SDS011;64758;52.122;5.404;2023-04-25T07:38:47;3.53;;;0.35;;
75413;SDS011;64758;52.122;5.404;2023-04-25T07:41:13;7.95;;;0.90;;
75413;SDS011;64758;52.122;5.404;2023-04-25T07:43:40;4.70;;;0.60;;
75413;SDS011;64758;52.122;5.404;2023-04-25T07:46:06;6.53;;;0.47;;
75413;SDS011;64758;52.122;5.404;2023-04-25T07:48:33;4.35;;;0.43;;
75413;SDS011;64758;52.122;5.404;2023-04-25T07:51:00;4.82;;;0.77;;
75413;SDS011;64758;52.122;5.404;2023-04-25T07:53:26;2.38;;;0.45;;
75413;SDS011;64758;52.122;5.404;2023-04-25T07:55:53;4.63;;;0.55;;
75413;SDS011;64758;52.122;5.404;2023-04-25T07:58:19;4.30;;;0.73;;
75413;SDS011;64758;52.122;5.404;2023-04-25T08:00:48;3.00;;;0.40;;
75413;SDS011;64758;52.122;5.404;2023-04-25T08:03:16;7.80;;;0.40;;
75413;SDS011;64758;52.122;5.404;2023-04-25T08:05:42;4.13;;;0.40;;
75413;SDS011;64758;52.122;5.404;2023-04-25T08:08:09;6.32;;;0.75;;
75413;SDS011;64758;52.122;5.404;2023-04-25T08:10:36;4.87;;;0.70;;
75413;SDS011;64758;52.122;5.404;2023-04-25T08:13:03;11.07;;;0.50;;
75413;SDS011;64758;52.122;5.404;2023-04-25T08:15:29;3.05;;;0.43;;
75413;SDS011;64758;52.122;5.404;2023-04-25T08:17:56;5.13;;;0.80;;
75413;SDS011;64758;52.122;5.404;2023-04-25T08:20:22;5.85;;;0.52;;
75413;SDS011;64758;52.122;5.404;2023-04-25T08:22:49;5.53;;;0.50;;
75413;SDS011;64758;52.122;5.404;2023-04-25T08:25:15;4.80;;;0.68;;
75413;SDS011;64758;52.122;5.404;2023-04-25T08:27:42;3.75;;;0.30;;
75413;SDS011;64758;52.122;5.404;2023-04-25T08:30:09;3.80;;;0.50;;
75413;SDS011;64758;52.122;5.404;2023-04-25T08:32:36;4.47;;;0.40;;
75413;SDS011;64758;52.122;5.404;2023-04-25T08:35:06;2.43;;;0.30;;
75413;SDS011;64758;52.122;5.404;2023-04-25T08:37:32;2.72;;;0.20;;
75413;SDS011;64758;52.122;5.404;2023-04-25T08:39:59;2.80;;;0.32;;
75413;SDS011;64758;52.122;5.404;2023-04-25T08:42:26;4.85;;;0.30;;
75413;SDS011;64758;52.122;5.404;2023-04-25T08:44:55;1.58;;;0.20;;
75413;SDS011;64758;52.122;5.404;2023-04-25T08:47:22;3.50;;;0.43;;
75413;SDS011;64758;52.122;5.404;2023-04-25T08:49:50;2.95;;;0.30;;
75413;SDS011;64758;52.122;5.404;2023-04-25T08:52:22;3.92;;;0.73;;
75413;SDS011;64758;52.122;5.404;2023-04-25T08:54:50;4.47;;;0.45;;
75413;SDS011;64758;52.122;5.404;2023-04-25T08:57:17;5.07;;;0.60;;
75413;SDS011;64758;52.122;5.404;2023-04-25T08:59:44;8.30;;;1.00;;
75413;SDS011;64758;52.122;5.404;2023-04-25T09:02:13;2.17;;;0.40;;
75413;SDS011;64758;52.122;5.404;2023-04-25T09:04:43;6.00;;;0.60;;
75413;SDS011;64758;52.122;5.404;2023-04-25T09:07:10;4.45;;;0.40;;
75413;SDS011;64758;52.122;5.404;2023-04-25T09:09:37;3.40;;;0.30;;
75413;SDS011;64758;52.122;5.404;2023-04-25T09:12:04;3.93;;;0.50;;
75413;SDS011;64758;52.122;5.404;2023-04-25T09:14:31;1.92;;;0.35;;
75413;SDS011;64758;52.122;5.404;2023-04-25T09:16:58;4.65;;;0.40;;
75413;SDS011;64758;52.122;5.404;2023-04-25T09:19:28;5.35;;;0.45;;
75413;SDS011;64758;52.122;5.404;2023-04-25T09:22:05;2.25;;;0.55;;
75413;SDS011;64758;52.122;5.404;2023-04-25T09:24:34;3.17;;;0.47;;
75413;SDS011;64758;52.122;5.404;2023-04-25T09:27:10;2.13;;;0.50;;
75413;SDS011;64758;52.122;5.404;2023-04-25T09:29:39;4.80;;;0.40;;
75413;SDS011;64758;52.122;5.404;2023-04-25T09:32:20;4.88;;;0.70;;
75413;SDS011;64758;52.122;5.404;2023-04-25T09:34:52;3.53;;;0.32;;
75413;SDS011;64758;52.122;5.404;2023-04-25T09:37:23;3.07;;;0.50;;
75413;SDS011;64758;52.122;5.404;2023-04-25T09:39:56;5.60;;;0.40;;
75413;SDS011;64758;52.122;5.404;2023-04-25T09:42:28;4.47;;;0.47;;
75413;SDS011;64758;52.122;5.404;2023-04-25T09:44:58;1.73;;;0.30;;
75413;SDS011;64758;52.122;5.404;2023-04-25T09:47:25;4.55;;;0.70;;
75413;SDS011;64758;52.122;5.404;2023-04-25T09:49:53;4.03;;;0.40;;
75413;SDS011;64758;52.122;5.404;2023-04-25T09:52:21;1.88;;;0.38;;
75413;SDS011;64758;52.122;5.404;2023-04-25T09:54:51;2.53;;;0.30;;
75413;SDS011;64758;52.122;5.404;2023-04-25T09:57:23;4.00;;;0.73;;
75413;SDS011;64758;52.122;5.404;2023-04-25T09:59:52;4.55;;;0.40;;
75413;SDS011;64758;52.122;5.404;2023-04-25T10:02:21;3.73;;;0.30;;
75413;SDS011;64758;52.122;5.404;2023-04-25T10:04:55;2.95;;;0.47;;
75413;SDS011;64758;52.122;5.404;2023-04-25T10:07:23;3.88;;;0.50;;
75413;SDS011;64758;52.122;5.404;2023-04-25T10:09:55;0.47;;;0.20;;
75413;SDS011;64758;52.122;5.404;2023-04-25T10:12:29;3.70;;;0.32;;
75413;SDS011;64758;52.122;5.404;2023-04-25T10:15:00;2.87;;;0.43;;
75413;SDS011;64758;52.122;5.404;2023-04-25T10:17:27;2.05;;;0.68;;
75413;SDS011;64758;52.122;5.404;2023-04-25T10:19:54;3.35;;;0.50;;
75413;SDS011;64758;52.122;5.404;2023-04-25T10:22:41;3.67;;;0.30;;
75413;SDS011;64758;52.122;5.404;2023-04-25T10:25:10;2.92;;;0.30;;
75413;SDS011;64758;52.122;5.404;2023-04-25T10:27:38;3.60;;;0.30;;
75413;SDS011;64758;52.122;5.404;2023-04-25T10:30:09;3.42;;;0.32;;
75413;SDS011;64758;52.122;5.404;2023-04-25T10:32:42;4.95;;;1.10;;
75413;SDS011;64758;52.122;5.404;2023-04-25T10:35:13;5.13;;;0.93;;
75413;SDS011;64758;52.122;5.404;2023-04-25T10:40:31;2.92;;;0.30;;
75413;SDS011;64758;52.122;5.404;2023-04-25T10:46:22;3.08;;;0.40;;
75413;SDS011;64758;52.122;5.404;2023-04-25T10:48:54;3.08;;;0.52;;
75413;SDS011;64758;52.122;5.404;2023-04-25T10:51:29;5.43;;;0.47;;
75413;SDS011;64758;52.122;5.404;2023-04-25T10:54:19;2.05;;;0.30;;
75413;SDS011;64758;52.122;5.404;2023-04-25T10:56:48;1.77;;;0.30;;
75413;SDS011;64758;52.122;5.404;2023-04-25T10:59:15;3.33;;;0.60;;
75413;SDS011;64758;52.122;5.404;2023-04-25T11:01:43;5.50;;;0.55;;
75413;SDS011;64758;52.122;5.404;2023-04-25T11:04:21;2.45;;;0.40;;
75413;SDS011;64758;52.122;5.404;2023-04-25T11:09:38;3.70;;;0.75;;
75413;SDS011;64758;52.122;5.404;2023-04-25T11:12:09;2.13;;;0.40;;
75413;SDS011;64758;52.122;5.404;2023-04-25T11:14:38;3.58;;;0.40;;
75413;SDS011;64758;52.122;5.404;2023-04-25T11:17:05;3.50;;;0.45;;
75413;SDS011;64758;52.122;5.404;2023-04-25T11:19:32;2.33;;;0.55;;
75413;SDS011;64758;52.122;5.404;2023-04-25T11:21:59;1.42;;;0.30;;
75413;SDS011;64758;52.122;5.404;2023-04-25T11:24:27;4.00;;;0.65;;
75413;SDS011;64758;52.122;5.404;2023-04-25T11:26:57;1.88;;;0.30;;
75413;SDS011;64758;52.122;5.404;2023-04-25T11:29:28;1.20;;;0.38;;
75413;SDS011;64758;52.122;5.404;2023-04-25T11:31:56;2.97;;;0.40;;
75413;SDS011;64758;52.122;5.404;2023-04-25T11:34:24;2.10;;;0.45;;
75413;SDS011;64758;52.122;5.404;2023-04-25T11:36:52;3.03;;;0.32;;
75413;SDS011;64758;52.122;5.404;2023-04-25T11:39:19;3.42;;;0.40;;
75413;SDS011;64758;52.122;5.404;2023-04-25T11:41:46;3.38;;;0.43;;
75413;SDS011;64758;52.122;5.404;2023-04-25T11:44:16;4.60;;;0.40;;
75413;SDS011;64758;52.122;5.404;2023-04-25T11:46:43;5.03;;;0.50;;
75413;SDS011;64758;52.122;5.404;2023-04-25T11:49:11;5.88;;;0.70;;
75413;SDS011;64758;52.122;5.404;2023-04-25T11:51:44;1.38;;;0.20;;
75413;SDS011;64758;52.122;5.404;2023-04-25T11:54:12;2.92;;;0.40;;
75413;SDS011;64758;52.122;5.404;2023-04-25T11:56:43;7.60;;;0.40;;
75413;SDS011;64758;52.122;5.404;2023-04-25T11:59:11;3.13;;;0.30;;
75413;SDS011;64758;52.122;5.404;2023-04-25T12:01:39;6.18;;;0.60;;
75413;SDS011;64758;52.122;5.404;2023-04-25T12:04:14;4.43;;;0.40;;
75413;SDS011;64758;52.122;5.404;2023-04-25T12:06:41;3.42;;;0.50;;
75413;SDS011;64758;52.122;5.404;2023-04-25T12:09:10;2.63;;;0.37;;
75413;SDS011;64758;52.122;5.404;2023-04-25T12:11:42;3.40;;;0.60;;
75413;SDS011;64758;52.122;5.404;2023-04-25T12:14:10;2.05;;;0.50;;
75413;SDS011;64758;52.122;5.404;2023-04-25T12:16:44;3.22;;;0.30;;
75413;SDS011;64758;52.122;5.404;2023-04-25T12:19:15;2.20;;;0.43;;
75413;SDS011;64758;52.122;5.404;2023-04-25T12:21:43;2.15;;;0.30;;
75413;SDS011;64758;52.122;5.404;2023-04-25T12:24:23;2.73;;;0.40;;
75413;SDS011;64758;52.122;5.404;2023-04-25T12:29:26;1.83;;;0.50;;
75413;SDS011;64758;52.122;5.404;2023-04-25T12:32:03;4.30;;;0.43;;
75413;SDS011;64758;52.122;5.404;2023-04-25T12:34:31;3.80;;;0.40;;
75413;SDS011;64758;52.122;5.404;2023-04-25T12:36:58;2.50;;;0.32;;
75413;SDS011;64758;52.122;5.404;2023-04-25T12:39:25;4.25;;;0.52;;
75413;SDS011;64758;52.122;5.404;2023-04-25T12:41:52;3.30;;;0.32;;
75413;SDS011;64758;52.122;5.404;2023-04-25T12:44:20;1.65;;;0.45;;
75413;SDS011;64758;52.122;5.404;2023-04-25T12:46:47;1.42;;;0.50;;
75413;SDS011;64758;52.122;5.404;2023-04-25T12:49:14;3.83;;;0.40;;
75413;SDS011;64758;52.122;5.404;2023-04-25T12:51:44;1.27;;;0.40;;
75413;SDS011;64758;52.122;5.404;2023-04-25T12:54:11;2.50;;;0.40;;
75413;SDS011;64758;52.122;5.404;2023-04-25T12:56:38;3.58;;;0.38;;
75413;SDS011;64758;52.122;5.404;2023-04-25T12:59:04;2.00;;;0.32;;
75413;SDS011;64758;52.122;5.404;2023-04-25T13:01:31;1.10;;;0.30;;
75413;SDS011;64758;52.122;5.404;2023-04-25T13:04:01;1.75;;;0.30;;
75413;SDS011;64758;52.122;5.404;2023-04-25T13:06:28;2.55;;;0.45;;
75413;SDS011;64758;52.122;5.404;2023-04-25T13:08:56;2.65;;;0.30;;
75413;SDS011;64758;52.122;5.404;2023-04-25T13:11:23;2.35;;;0.30;;
75413;SDS011;64758;52.122;5.404;2023-04-25T13:13:49;0.97;;;0.20;;
75413;SDS011;64758;52.122;5.404;2023-04-25T13:16:16;3.08;;;0.30;;
75413;SDS011;64758;52.122;5.404;2023-04-25T13:18:43;2.53;;;0.35;;
75413;SDS011;64758;52.122;5.404;2023-04-25T13:21:10;2.85;;;0.43;;
75413;SDS011;64758;52.122;5.404;2023-04-25T13:23:40;4.25;;;0.43;;
75413;SDS011;64758;52.122;5.404;2023-04-25T13:26:08;3.20;;;0.90;;
75413;SDS011;64758;52.122;5.404;2023-04-25T13:28:34;1.55;;;0.30;;
75413;SDS011;64758;52.122;5.404;2023-04-25T13:31:01;2.40;;;0.60;;
75413;SDS011;64758;52.122;5.404;2023-04-25T13:33:28;3.90;;;0.40;;
75413;SDS011;64758;52.122;5.404;2023-04-25T13:35:55;1.50;;;0.35;;
75413;SDS011;64758;52.122;5.404;2023-04-25T13:38:23;3.37;;;0.40;;
75413;SDS011;64758;52.122;5.404;2023-04-25T13:40:52;3.35;;;0.55;;
75413;SDS011;64758;52.122;5.404;2023-04-25T13:43:19;1.65;;;0.20;;
75413;SDS011;64758;52.122;5.404;2023-04-25T13:45:48;0.98;;;0.40;;
75413;SDS011;64758;52.122;5.404;2023-04-25T13:48:15;3.55;;;0.43;;
75413;SDS011;64758;52.122;5.404;2023-04-25T13:50:42;3.00;;;0.40;;
75413;SDS011;64758;52.122;5.404;2023-04-25T13:53:08;2.85;;;0.30;;
75413;SDS011;64758;52.122;5.404;2023-04-25T13:55:35;3.83;;;0.60;;
75413;SDS011;64758;52.122;5.404;2023-04-25T13:58:03;4.30;;;0.73;;
75413;SDS011;64758;52.122;5.404;2023-04-25T14:00:36;3.58;;;0.40;;
75413;SDS011;64758;52.122;5.404;2023-04-25T14:03:05;2.33;;;0.50;;
75413;SDS011;64758;52.122;5.404;2023-04-25T14:05:34;4.50;;;0.40;;
75413;SDS011;64758;52.122;5.404;2023-04-25T14:08:08;5.18;;;0.70;;
75413;SDS011;64758;52.122;5.404;2023-04-25T14:10:35;3.80;;;0.47;;
75413;SDS011;64758;52.122;5.404;2023-04-25T14:13:03;3.22;;;0.30;;
75413;SDS011;64758;52.122;5.404;2023-04-25T14:15:33;4.53;;;0.43;;
75413;SDS011;64758;52.122;5.404;2023-04-25T14:18:01;4.68;;;0.85;;
75413;SDS011;64758;52.122;5.404;2023-04-25T14:20:28;3.97;;;0.50;;
75413;SDS011;64758;52.122;5.404;2023-04-25T14:22:54;3.33;;;0.50;;
75413;SDS011;64758;52.122;5.404;2023-04-25T14:25:22;4.87;;;0.60;;
75413;SDS011;64758;52.122;5.404;2023-04-25T14:27:49;2.47;;;0.50;;
75413;SDS011;64758;52.122;5.404;2023-04-25T14:30:17;2.03;;;0.30;;
75413;SDS011;64758;52.122;5.404;2023-04-25T14:32:44;3.08;;;0.40;;
75413;SDS011;64758;52.122;5.404;2023-04-25T14:35:11;3.38;;;0.40;;
75413;SDS011;64758;52.122;5.404;2023-04-25T14:37:38;6.35;;;0.50;;
75413;SDS011;64758;52.122;5.404;2023-04-25T14:40:05;1.37;;;0.50;;
75413;SDS011;64758;52.122;5.404;2023-04-25T14:42:36;3.35;;;0.50;;
75413;SDS011;64758;52.122;5.404;2023-04-25T14:45:03;3.17;;;0.47;;
75413;SDS011;64758;52.122;5.404;2023-04-25T14:47:33;2.95;;;0.65;;
75413;SDS011;64758;52.122;5.404;2023-04-25T14:50:00;3.03;;;0.40;;
75413;SDS011;64758;52.122;5.404;2023-04-25T14:52:28;2.37;;;0.57;;
75413;SDS011;64758;52.122;5.404;2023-04-25T14:54:54;1.83;;;0.43;;
75413;SDS011;64758;52.122;5.404;2023-04-25T14:57:21;2.47;;;0.40;;
75413;SDS011;64758;52.122;5.404;2023-04-25T14:59:47;3.88;;;0.60;;
75413;SDS011;64758;52.122;5.404;2023-04-25T15:02:14;1.63;;;0.32;;